sensor_id;sensor_type;location;lat;lon;timestamp;P1;durP1;ratioP1;P2;durP2;ratioP2
61905;SDS011;47863;55.766;37.672;2023-05-16T00:01:49;9.95;;;2.90;;
61905;SDS011;47863;55.766;37.672;2023-05-16T00:04:15;8.40;;;3.58;;
61905;SDS011;47863;55.766;37.672;2023-05-16T00:06:41;6.22;;;2.88;;
61905;SDS011;47863;55.766;37.672;2023-05-16T00:09:07;5.93;;;2.72;;
61905;SDS011;47863;55.766;37.672;2023-05-16T00:11:33;6.60;;;2.70;;
61905;SDS011;47863;55.766;37.672;2023-05-16T00:13:58;7.22;;;2.70;;
61905;SDS011;47863;55.766;37.672;2023-05-16T00:16:25;8.63;;;2.60;;
61905;SDS011;47863;55.766;37.672;2023-05-16T00:18:54;9.02;;;2.70;;
61905;SDS011;47863;55.766;37.672;2023-05-16T00:21:21;7.20;;;2.80;;
61905;SDS011;47863;55.766;37.672;2023-05-16T00:23:48;7.18;;;2.65;;
61905;SDS011;47863;55.766;37.672;2023-05-16T00:26:14;6.80;;;3.00;;
61905;SDS011;47863;55.766;37.672;2023-05-16T00:28:40;6.60;;;3.05;;
61905;SDS011;47863;55.766;37.672;2023-05-16T00:31:06;6.75;;;2.60;;
61905;SDS011;47863;55.766;37.672;2023-05-16T00:33:32;7.72;;;3.15;;
61905;SDS011;47863;55.766;37.672;2023-05-16T00:35:58;7.72;;;3.03;;
61905;SDS011;47863;55.766;37.672;2023-05-16T00:38:24;5.95;;;2.60;;
61905;SDS011;47863;55.766;37.672;2023-05-16T00:40:50;7.30;;;2.88;;
61905;SDS011;47863;55.766;37.672;2023-05-16T00:43:16;7.45;;;2.65;;
61905;SDS011;47863;55.766;37.672;2023-05-16T00:45:42;5.93;;;2.72;;
61905;SDS011;47863;55.766;37.672;2023-05-16T00:48:08;6.40;;;2.72;;
61905;SDS011;47863;55.766;37.672;2023-05-16T00:50:35;6.45;;;3.25;;
61905;SDS011;47863;55.766;37.672;2023-05-16T00:53:01;10.32;;;3.40;;
61905;SDS011;47863;55.766;37.672;2023-05-16T00:55:26;6.20;;;2.60;;
61905;SDS011;47863;55.766;37.672;2023-05-16T00:57:52;8.05;;;3.05;;
61905;SDS011;47863;55.766;37.672;2023-05-16T01:00:18;6.90;;;2.90;;
61905;SDS011;47863;55.766;37.672;2023-05-16T01:02:44;8.05;;;3.08;;
61905;SDS011;47863;55.766;37.672;2023-05-16T01:05:11;9.07;;;3.75;;
61905;SDS011;47863;55.766;37.672;2023-05-16T01:07:37;12.82;;;3.80;;
61905;SDS011;47863;55.766;37.672;2023-05-16T01:10:03;12.65;;;5.57;;
61905;SDS011;47863;55.766;37.672;2023-05-16T01:12:35;9.32;;;3.20;;
61905;SDS011;47863;55.766;37.672;2023-05-16T01:15:18;7.32;;;3.22;;
61905;SDS011;47863;55.766;37.672;2023-05-16T01:20:29;7.30;;;3.15;;
61905;SDS011;47863;55.766;37.672;2023-05-16T01:28:38;8.48;;;4.00;;
61905;SDS011;47863;55.766;37.672;2023-05-16T01:31:05;9.70;;;4.15;;
61905;SDS011;47863;55.766;37.672;2023-05-16T01:33:31;6.95;;;3.38;;
61905;SDS011;47863;55.766;37.672;2023-05-16T01:38:35;6.75;;;3.15;;
61905;SDS011;47863;55.766;37.672;2023-05-16T01:41:11;8.60;;;3.58;;
61905;SDS011;47863;55.766;37.672;2023-05-16T01:43:47;8.07;;;3.47;;
61905;SDS011;47863;55.766;37.672;2023-05-16T01:46:20;7.85;;;3.30;;
61905;SDS011;47863;55.766;37.672;2023-05-16T01:48:53;7.15;;;3.25;;
61905;SDS011;47863;55.766;37.672;2023-05-16T01:51:28;8.85;;;3.47;;
61905;SDS011;47863;55.766;37.672;2023-05-16T01:53:58;9.68;;;3.63;;
61905;SDS011;47863;55.766;37.672;2023-05-16T01:56:29;7.40;;;3.47;;
61905;SDS011;47863;55.766;37.672;2023-05-16T01:58:56;7.15;;;3.50;;
61905;SDS011;47863;55.766;37.672;2023-05-16T02:01:23;9.23;;;3.72;;
61905;SDS011;47863;55.766;37.672;2023-05-16T02:03:49;6.68;;;3.60;;
61905;SDS011;47863;55.766;37.672;2023-05-16T02:06:15;6.72;;;3.17;;
61905;SDS011;47863;55.766;37.672;2023-05-16T02:08:41;7.40;;;3.08;;
61905;SDS011;47863;55.766;37.672;2023-05-16T02:11:07;8.15;;;3.38;;
61905;SDS011;47863;55.766;37.672;2023-05-16T02:13:32;9.07;;;3.97;;
61905;SDS011;47863;55.766;37.672;2023-05-16T02:15:58;7.47;;;3.55;;
61905;SDS011;47863;55.766;37.672;2023-05-16T02:18:24;6.63;;;3.50;;
61905;SDS011;47863;55.766;37.672;2023-05-16T02:20:52;8.32;;;3.97;;
61905;SDS011;47863;55.766;37.672;2023-05-16T02:23:18;7.50;;;4.03;;
61905;SDS011;47863;55.766;37.672;2023-05-16T02:25:44;7.97;;;3.97;;
61905;SDS011;47863;55.766;37.672;2023-05-16T02:28:10;10.10;;;4.25;;
61905;SDS011;47863;55.766;37.672;2023-05-16T02:30:35;8.43;;;4.07;;
61905;SDS011;47863;55.766;37.672;2023-05-16T02:33:01;7.80;;;3.60;;
61905;SDS011;47863;55.766;37.672;2023-05-16T02:35:27;8.50;;;4.05;;
61905;SDS011;47863;55.766;37.672;2023-05-16T02:37:52;8.23;;;3.80;;
61905;SDS011;47863;55.766;37.672;2023-05-16T02:40:18;6.35;;;3.33;;
61905;SDS011;47863;55.766;37.672;2023-05-16T02:42:44;8.70;;;3.97;;
61905;SDS011;47863;55.766;37.672;2023-05-16T02:45:09;8.57;;;4.53;;
61905;SDS011;47863;55.766;37.672;2023-05-16T02:47:35;13.98;;;4.90;;
61905;SDS011;47863;55.766;37.672;2023-05-16T02:50:01;7.20;;;3.83;;
61905;SDS011;47863;55.766;37.672;2023-05-16T02:52:30;7.07;;;3.47;;
61905;SDS011;47863;55.766;37.672;2023-05-16T02:54:55;6.93;;;3.20;;
61905;SDS011;47863;55.766;37.672;2023-05-16T02:57:21;8.75;;;3.90;;
61905;SDS011;47863;55.766;37.672;2023-05-16T02:59:47;6.88;;;3.17;;
61905;SDS011;47863;55.766;37.672;2023-05-16T03:02:12;9.85;;;3.80;;
61905;SDS011;47863;55.766;37.672;2023-05-16T03:04:38;5.05;;;3.28;;
61905;SDS011;47863;55.766;37.672;2023-05-16T03:07:04;6.63;;;3.58;;
61905;SDS011;47863;55.766;37.672;2023-05-16T03:09:29;7.20;;;3.10;;
61905;SDS011;47863;55.766;37.672;2023-05-16T03:11:55;7.32;;;3.55;;
61905;SDS011;47863;55.766;37.672;2023-05-16T03:14:21;9.32;;;3.15;;
61905;SDS011;47863;55.766;37.672;2023-05-16T03:16:46;6.53;;;3.47;;
61905;SDS011;47863;55.766;37.672;2023-05-16T03:19:12;7.13;;;3.55;;
61905;SDS011;47863;55.766;37.672;2023-05-16T03:21:38;7.20;;;4.20;;
61905;SDS011;47863;55.766;37.672;2023-05-16T03:24:03;8.50;;;2.92;;
61905;SDS011;47863;55.766;37.672;2023-05-16T03:26:29;7.63;;;3.40;;
61905;SDS011;47863;55.766;37.672;2023-05-16T03:28:55;6.97;;;3.20;;
61905;SDS011;47863;55.766;37.672;2023-05-16T03:31:21;6.43;;;2.85;;
61905;SDS011;47863;55.766;37.672;2023-05-16T03:33:46;4.60;;;2.67;;
61905;SDS011;47863;55.766;37.672;2023-05-16T03:36:12;7.53;;;3.50;;
61905;SDS011;47863;55.766;37.672;2023-05-16T03:38:38;7.20;;;3.47;;
61905;SDS011;47863;55.766;37.672;2023-05-16T03:41:04;6.80;;;3.58;;
61905;SDS011;47863;55.766;37.672;2023-05-16T03:43:29;9.35;;;3.42;;
61905;SDS011;47863;55.766;37.672;2023-05-16T03:45:55;6.60;;;3.00;;
61905;SDS011;47863;55.766;37.672;2023-05-16T03:48:20;5.57;;;2.72;;
61905;SDS011;47863;55.766;37.672;2023-05-16T03:50:46;4.90;;;2.85;;
61905;SDS011;47863;55.766;37.672;2023-05-16T03:53:12;5.57;;;2.60;;
61905;SDS011;47863;55.766;37.672;2023-05-16T03:55:38;5.95;;;2.88;;
61905;SDS011;47863;55.766;37.672;2023-05-16T03:58:03;4.32;;;2.63;;
61905;SDS011;47863;55.766;37.672;2023-05-16T04:00:29;5.32;;;2.72;;
61905;SDS011;47863;55.766;37.672;2023-05-16T04:02:55;7.13;;;2.90;;
61905;SDS011;47863;55.766;37.672;2023-05-16T04:05:21;6.65;;;2.72;;
61905;SDS011;47863;55.766;37.672;2023-05-16T04:07:46;4.88;;;2.50;;
61905;SDS011;47863;55.766;37.672;2023-05-16T04:10:13;5.72;;;2.60;;
61905;SDS011;47863;55.766;37.672;2023-05-16T04:12:39;4.90;;;2.53;;
61905;SDS011;47863;55.766;37.672;2023-05-16T04:15:05;5.05;;;2.90;;
61905;SDS011;47863;55.766;37.672;2023-05-16T04:17:31;7.80;;;2.65;;
61905;SDS011;47863;55.766;37.672;2023-05-16T04:19:57;6.65;;;2.60;;
61905;SDS011;47863;55.766;37.672;2023-05-16T04:22:24;5.28;;;2.40;;
61905;SDS011;47863;55.766;37.672;2023-05-16T04:24:49;5.25;;;2.53;;
61905;SDS011;47863;55.766;37.672;2023-05-16T04:27:15;5.53;;;2.35;;
61905;SDS011;47863;55.766;37.672;2023-05-16T04:29:41;7.05;;;3.00;;
61905;SDS011;47863;55.766;37.672;2023-05-16T04:32:07;7.13;;;2.60;;
61905;SDS011;47863;55.766;37.672;2023-05-16T04:34:33;4.68;;;2.30;;
61905;SDS011;47863;55.766;37.672;2023-05-16T04:37:02;6.90;;;2.33;;
61905;SDS011;47863;55.766;37.672;2023-05-16T04:39:29;4.30;;;2.42;;
61905;SDS011;47863;55.766;37.672;2023-05-16T04:41:56;7.70;;;2.35;;
61905;SDS011;47863;55.766;37.672;2023-05-16T04:44:25;4.22;;;2.33;;
61905;SDS011;47863;55.766;37.672;2023-05-16T04:46:51;5.55;;;2.28;;
61905;SDS011;47863;55.766;37.672;2023-05-16T04:49:18;5.18;;;2.35;;
61905;SDS011;47863;55.766;37.672;2023-05-16T04:51:44;9.00;;;2.55;;
61905;SDS011;47863;55.766;37.672;2023-05-16T04:54:10;6.18;;;2.58;;
61905;SDS011;47863;55.766;37.672;2023-05-16T04:56:35;4.38;;;1.80;;
61905;SDS011;47863;55.766;37.672;2023-05-16T04:59:01;6.07;;;2.13;;
61905;SDS011;47863;55.766;37.672;2023-05-16T05:01:28;4.00;;;2.10;;
61905;SDS011;47863;55.766;37.672;2023-05-16T05:03:54;4.25;;;1.80;;
61905;SDS011;47863;55.766;37.672;2023-05-16T05:06:20;4.55;;;2.00;;
61905;SDS011;47863;55.766;37.672;2023-05-16T05:08:46;7.93;;;2.40;;
61905;SDS011;47863;55.766;37.672;2023-05-16T05:11:12;5.53;;;2.15;;
61905;SDS011;47863;55.766;37.672;2023-05-16T05:13:37;6.18;;;2.38;;
61905;SDS011;47863;55.766;37.672;2023-05-16T05:16:03;5.68;;;2.20;;
61905;SDS011;47863;55.766;37.672;2023-05-16T05:18:30;7.70;;;2.45;;
61905;SDS011;47863;55.766;37.672;2023-05-16T05:20:56;6.57;;;2.20;;
61905;SDS011;47863;55.766;37.672;2023-05-16T05:23:22;4.70;;;2.40;;
61905;SDS011;47863;55.766;37.672;2023-05-16T05:25:49;9.05;;;2.97;;
61905;SDS011;47863;55.766;37.672;2023-05-16T05:28:15;7.07;;;2.90;;
61905;SDS011;47863;55.766;37.672;2023-05-16T05:30:41;5.45;;;2.28;;
61905;SDS011;47863;55.766;37.672;2023-05-16T05:33:07;8.25;;;2.35;;
61905;SDS011;47863;55.766;37.672;2023-05-16T05:35:32;6.50;;;2.20;;
61905;SDS011;47863;55.766;37.672;2023-05-16T05:37:58;5.72;;;1.85;;
61905;SDS011;47863;55.766;37.672;2023-05-16T05:40:24;2.72;;;1.30;;
61905;SDS011;47863;55.766;37.672;2023-05-16T05:42:49;4.32;;;1.38;;
61905;SDS011;47863;55.766;37.672;2023-05-16T05:45:15;6.65;;;1.67;;
61905;SDS011;47863;55.766;37.672;2023-05-16T05:47:41;4.05;;;1.77;;
61905;SDS011;47863;55.766;37.672;2023-05-16T05:50:07;2.85;;;1.33;;
61905;SDS011;47863;55.766;37.672;2023-05-16T05:52:35;3.08;;;1.48;;
61905;SDS011;47863;55.766;37.672;2023-05-16T05:55:02;3.78;;;1.75;;
61905;SDS011;47863;55.766;37.672;2023-05-16T05:57:30;5.05;;;1.85;;
61905;SDS011;47863;55.766;37.672;2023-05-16T05:59:56;10.57;;;2.42;;
61905;SDS011;47863;55.766;37.672;2023-05-16T06:02:21;6.82;;;1.90;;
61905;SDS011;47863;55.766;37.672;2023-05-16T06:04:47;9.85;;;2.03;;
61905;SDS011;47863;55.766;37.672;2023-05-16T06:07:12;2.88;;;1.50;;
61905;SDS011;47863;55.766;37.672;2023-05-16T06:09:40;5.28;;;1.83;;
61905;SDS011;47863;55.766;37.672;2023-05-16T06:12:07;3.15;;;1.38;;
61905;SDS011;47863;55.766;37.672;2023-05-16T06:14:33;2.88;;;1.30;;
61905;SDS011;47863;55.766;37.672;2023-05-16T06:16:59;6.55;;;1.67;;
61905;SDS011;47863;55.766;37.672;2023-05-16T06:19:25;10.75;;;2.05;;
61905;SDS011;47863;55.766;37.672;2023-05-16T06:21:50;3.08;;;1.55;;
61905;SDS011;47863;55.766;37.672;2023-05-16T06:24:16;4.82;;;1.63;;
61905;SDS011;47863;55.766;37.672;2023-05-16T06:26:41;5.78;;;1.90;;
61905;SDS011;47863;55.766;37.672;2023-05-16T06:29:10;5.70;;;1.60;;
61905;SDS011;47863;55.766;37.672;2023-05-16T06:31:36;4.05;;;1.52;;
61905;SDS011;47863;55.766;37.672;2023-05-16T06:34:01;2.53;;;1.50;;
61905;SDS011;47863;55.766;37.672;2023-05-16T06:36:27;3.25;;;1.60;;
61905;SDS011;47863;55.766;37.672;2023-05-16T06:38:52;2.25;;;1.10;;
61905;SDS011;47863;55.766;37.672;2023-05-16T06:41:18;23.33;;;3.50;;
61905;SDS011;47863;55.766;37.672;2023-05-16T06:43:43;3.20;;;1.50;;
61905;SDS011;47863;55.766;37.672;2023-05-16T06:46:09;9.93;;;1.80;;
61905;SDS011;47863;55.766;37.672;2023-05-16T06:48:35;5.22;;;1.40;;
61905;SDS011;47863;55.766;37.672;2023-05-16T06:51:01;2.88;;;1.63;;
61905;SDS011;47863;55.766;37.672;2023-05-16T06:53:26;3.25;;;1.30;;
61905;SDS011;47863;55.766;37.672;2023-05-16T06:55:52;3.03;;;1.35;;
61905;SDS011;47863;55.766;37.672;2023-05-16T06:58:18;3.67;;;1.23;;
61905;SDS011;47863;55.766;37.672;2023-05-16T07:00:44;4.63;;;1.70;;
61905;SDS011;47863;55.766;37.672;2023-05-16T07:03:09;5.53;;;1.52;;
61905;SDS011;47863;55.766;37.672;2023-05-16T07:05:35;4.95;;;1.52;;
61905;SDS011;47863;55.766;37.672;2023-05-16T07:08:01;1.90;;;1.25;;
61905;SDS011;47863;55.766;37.672;2023-05-16T07:10:27;9.13;;;1.92;;
61905;SDS011;47863;55.766;37.672;2023-05-16T07:12:52;4.10;;;1.20;;
61905;SDS011;47863;55.766;37.672;2023-05-16T07:15:18;2.95;;;1.25;;
61905;SDS011;47863;55.766;37.672;2023-05-16T07:17:44;5.47;;;1.67;;
61905;SDS011;47863;55.766;37.672;2023-05-16T07:20:10;3.35;;;1.45;;
61905;SDS011;47863;55.766;37.672;2023-05-16T07:22:39;2.42;;;1.20;;
61905;SDS011;47863;55.766;37.672;2023-05-16T07:25:05;8.93;;;1.77;;
61905;SDS011;47863;55.766;37.672;2023-05-16T07:27:36;3.60;;;1.25;;
61905;SDS011;47863;55.766;37.672;2023-05-16T07:30:03;3.50;;;1.30;;
61905;SDS011;47863;55.766;37.672;2023-05-16T07:32:30;3.30;;;1.25;;
61905;SDS011;47863;55.766;37.672;2023-05-16T07:34:56;3.90;;;1.30;;
61905;SDS011;47863;55.766;37.672;2023-05-16T07:37:21;2.13;;;1.17;;
61905;SDS011;47863;55.766;37.672;2023-05-16T07:39:47;4.68;;;1.40;;
61905;SDS011;47863;55.766;37.672;2023-05-16T07:42:13;3.85;;;1.40;;
61905;SDS011;47863;55.766;37.672;2023-05-16T07:44:39;10.50;;;1.75;;
61905;SDS011;47863;55.766;37.672;2023-05-16T07:47:04;2.20;;;0.93;;
61905;SDS011;47863;55.766;37.672;2023-05-16T07:49:30;2.80;;;1.05;;
61905;SDS011;47863;55.766;37.672;2023-05-16T07:51:56;10.57;;;1.60;;
61905;SDS011;47863;55.766;37.672;2023-05-16T07:54:21;2.97;;;1.00;;
61905;SDS011;47863;55.766;37.672;2023-05-16T07:56:47;1.27;;;0.93;;
61905;SDS011;47863;55.766;37.672;2023-05-16T07:59:12;1.83;;;0.98;;
61905;SDS011;47863;55.766;37.672;2023-05-16T08:01:38;8.68;;;1.42;;
61905;SDS011;47863;55.766;37.672;2023-05-16T08:04:04;2.58;;;1.10;;
61905;SDS011;47863;55.766;37.672;2023-05-16T08:06:30;3.35;;;1.20;;
61905;SDS011;47863;55.766;37.672;2023-05-16T08:08:55;3.03;;;1.13;;
61905;SDS011;47863;55.766;37.672;2023-05-16T08:11:21;2.13;;;1.02;;
61905;SDS011;47863;55.766;37.672;2023-05-16T08:13:47;6.03;;;1.30;;
61905;SDS011;47863;55.766;37.672;2023-05-16T08:16:13;4.93;;;1.58;;
61905;SDS011;47863;55.766;37.672;2023-05-16T08:18:39;6.50;;;1.30;;
61905;SDS011;47863;55.766;37.672;2023-05-16T08:21:05;5.57;;;1.20;;
61905;SDS011;47863;55.766;37.672;2023-05-16T08:23:31;2.70;;;1.10;;
61905;SDS011;47863;55.766;37.672;2023-05-16T08:25:56;4.43;;;1.30;;
61905;SDS011;47863;55.766;37.672;2023-05-16T08:28:22;2.47;;;1.35;;
61905;SDS011;47863;55.766;37.672;2023-05-16T08:30:48;2.15;;;1.10;;
61905;SDS011;47863;55.766;37.672;2023-05-16T08:33:14;3.83;;;1.20;;
61905;SDS011;47863;55.766;37.672;2023-05-16T08:35:43;3.95;;;1.42;;
61905;SDS011;47863;55.766;37.672;2023-05-16T08:38:09;2.88;;;1.10;;
61905;SDS011;47863;55.766;37.672;2023-05-16T08:40:35;7.20;;;1.38;;
61905;SDS011;47863;55.766;37.672;2023-05-16T08:43:01;5.00;;;1.20;;
61905;SDS011;47863;55.766;37.672;2023-05-16T08:45:26;4.35;;;1.17;;
61905;SDS011;47863;55.766;37.672;2023-05-16T08:47:54;3.47;;;1.15;;
61905;SDS011;47863;55.766;37.672;2023-05-16T08:50:21;4.70;;;0.85;;
61905;SDS011;47863;55.766;37.672;2023-05-16T08:52:49;3.50;;;0.98;;
61905;SDS011;47863;55.766;37.672;2023-05-16T08:55:18;8.52;;;1.60;;
61905;SDS011;47863;55.766;37.672;2023-05-16T08:57:45;4.07;;;1.33;;
61905;SDS011;47863;55.766;37.672;2023-05-16T09:00:13;2.45;;;1.00;;
61905;SDS011;47863;55.766;37.672;2023-05-16T09:02:40;5.35;;;1.05;;
61905;SDS011;47863;55.766;37.672;2023-05-16T09:05:07;1.77;;;0.90;;
61905;SDS011;47863;55.766;37.672;2023-05-16T09:07:35;3.92;;;1.23;;
61905;SDS011;47863;55.766;37.672;2023-05-16T09:10:01;4.63;;;1.35;;
61905;SDS011;47863;55.766;37.672;2023-05-16T09:12:29;3.28;;;1.00;;
61905;SDS011;47863;55.766;37.672;2023-05-16T09:14:55;7.53;;;1.40;;
61905;SDS011;47863;55.766;37.672;2023-05-16T09:17:22;2.78;;;1.00;;
61905;SDS011;47863;55.766;37.672;2023-05-16T09:19:48;2.08;;;1.00;;
61905;SDS011;47863;55.766;37.672;2023-05-16T09:22:17;5.55;;;1.17;;
61905;SDS011;47863;55.766;37.672;2023-05-16T09:24:43;2.58;;;0.88;;
61905;SDS011;47863;55.766;37.672;2023-05-16T09:27:10;2.65;;;1.20;;
61905;SDS011;47863;55.766;37.672;2023-05-16T09:29:41;3.33;;;1.20;;
61905;SDS011;47863;55.766;37.672;2023-05-16T09:32:16;2.42;;;0.73;;
61905;SDS011;47863;55.766;37.672;2023-05-16T09:34:43;4.20;;;1.90;;
61905;SDS011;47863;55.766;37.672;2023-05-16T09:37:12;8.75;;;1.63;;
61905;SDS011;47863;55.766;37.672;2023-05-16T09:39:39;2.35;;;1.20;;
61905;SDS011;47863;55.766;37.672;2023-05-16T09:42:10;2.03;;;1.00;;
61905;SDS011;47863;55.766;37.672;2023-05-16T09:44:36;2.72;;;1.00;;
61905;SDS011;47863;55.766;37.672;2023-05-16T09:47:02;7.18;;;1.80;;
61905;SDS011;47863;55.766;37.672;2023-05-16T09:49:28;2.25;;;1.08;;
61905;SDS011;47863;55.766;37.672;2023-05-16T09:51:54;2.30;;;1.08;;
61905;SDS011;47863;55.766;37.672;2023-05-16T09:54:30;13.30;;;2.08;;
61905;SDS011;47863;55.766;37.672;2023-05-16T09:56:57;1.50;;;0.90;;
61905;SDS011;47863;55.766;37.672;2023-05-16T09:59:23;2.42;;;0.95;;
61905;SDS011;47863;55.766;37.672;2023-05-16T10:01:48;5.97;;;1.42;;
61905;SDS011;47863;55.766;37.672;2023-05-16T10:04:15;2.85;;;1.08;;
61905;SDS011;47863;55.766;37.672;2023-05-16T10:06:41;2.53;;;1.10;;
61905;SDS011;47863;55.766;37.672;2023-05-16T10:09:10;2.00;;;1.00;;
61905;SDS011;47863;55.766;37.672;2023-05-16T10:11:38;5.38;;;1.08;;
61905;SDS011;47863;55.766;37.672;2023-05-16T10:14:07;2.10;;;0.80;;
61905;SDS011;47863;55.766;37.672;2023-05-16T10:16:35;3.42;;;1.02;;
61905;SDS011;47863;55.766;37.672;2023-05-16T10:19:01;5.18;;;1.60;;
61905;SDS011;47863;55.766;37.672;2023-05-16T10:21:28;3.85;;;1.40;;
61905;SDS011;47863;55.766;37.672;2023-05-16T10:23:55;13.10;;;2.42;;
61905;SDS011;47863;55.766;37.672;2023-05-16T10:26:23;9.80;;;1.98;;
61905;SDS011;47863;55.766;37.672;2023-05-16T10:28:50;4.40;;;1.65;;
61905;SDS011;47863;55.766;37.672;2023-05-16T10:31:18;3.35;;;1.40;;
61905;SDS011;47863;55.766;37.672;2023-05-16T10:33:43;3.10;;;1.20;;
61905;SDS011;47863;55.766;37.672;2023-05-16T10:36:10;1.27;;;0.90;;
61905;SDS011;47863;55.766;37.672;2023-05-16T10:38:37;4.40;;;1.90;;
61905;SDS011;47863;55.766;37.672;2023-05-16T10:41:04;4.32;;;2.60;;
61905;SDS011;47863;55.766;37.672;2023-05-16T10:43:31;10.38;;;7.32;;
61905;SDS011;47863;55.766;37.672;2023-05-16T10:46:04;8.45;;;7.25;;
61905;SDS011;47863;55.766;37.672;2023-05-16T10:48:37;6.50;;;4.18;;
61905;SDS011;47863;55.766;37.672;2023-05-16T10:51:50;22.13;;;3.80;;
61905;SDS011;47863;55.766;37.672;2023-05-16T10:54:03;3.35;;;1.65;;
61905;SDS011;47863;55.766;37.672;2023-05-16T10:56:31;5.40;;;1.30;;
61905;SDS011;47863;55.766;37.672;2023-05-16T10:58:58;5.97;;;1.50;;
61905;SDS011;47863;55.766;37.672;2023-05-16T11:01:27;3.38;;;1.33;;
61905;SDS011;47863;55.766;37.672;2023-05-16T11:06:28;2.90;;;1.15;;
61905;SDS011;47863;55.766;37.672;2023-05-16T11:14:33;8.57;;;1.38;;
61905;SDS011;47863;55.766;37.672;2023-05-16T11:19:44;1.80;;;0.90;;
61905;SDS011;47863;55.766;37.672;2023-05-16T11:27:36;3.22;;;1.52;;
61905;SDS011;47863;55.766;37.672;2023-05-16T11:30:11;5.28;;;1.67;;
61905;SDS011;47863;55.766;37.672;2023-05-16T11:32:39;1.52;;;1.00;;
61905;SDS011;47863;55.766;37.672;2023-05-16T11:35:09;1.73;;;0.95;;
61905;SDS011;47863;55.766;37.672;2023-05-16T11:37:39;3.45;;;1.40;;
61905;SDS011;47863;55.766;37.672;2023-05-16T11:40:08;2.17;;;1.00;;
61905;SDS011;47863;55.766;37.672;2023-05-16T11:42:36;3.50;;;1.40;;
61905;SDS011;47863;55.766;37.672;2023-05-16T11:45:18;3.22;;;1.00;;
61905;SDS011;47863;55.766;37.672;2023-05-16T11:47:47;1.38;;;0.88;;
61905;SDS011;47863;55.766;37.672;2023-05-16T11:50:14;2.92;;;1.13;;
61905;SDS011;47863;55.766;37.672;2023-05-16T11:52:52;9.52;;;1.50;;
61905;SDS011;47863;55.766;37.672;2023-05-16T11:55:21;3.33;;;1.30;;
61905;SDS011;47863;55.766;37.672;2023-05-16T11:57:51;2.85;;;1.70;;
61905;SDS011;47863;55.766;37.672;2023-05-16T12:00:19;9.90;;;2.60;;
61905;SDS011;47863;55.766;37.672;2023-05-16T12:02:47;39.90;;;4.88;;
61905;SDS011;47863;55.766;37.672;2023-05-16T12:05:14;4.78;;;1.73;;
61905;SDS011;47863;55.766;37.672;2023-05-16T12:07:43;3.97;;;1.40;;
61905;SDS011;47863;55.766;37.672;2023-05-16T12:10:11;2.95;;;1.10;;
61905;SDS011;47863;55.766;37.672;2023-05-16T12:12:39;5.93;;;1.40;;
61905;SDS011;47863;55.766;37.672;2023-05-16T12:15:07;3.10;;;1.10;;
61905;SDS011;47863;55.766;37.672;2023-05-16T12:17:34;13.57;;;1.83;;
61905;SDS011;47863;55.766;37.672;2023-05-16T12:20:01;8.63;;;1.40;;
61905;SDS011;47863;55.766;37.672;2023-05-16T12:22:32;5.78;;;1.20;;
61905;SDS011;47863;55.766;37.672;2023-05-16T12:28:06;5.20;;;1.02;;
61905;SDS011;47863;55.766;37.672;2023-05-16T12:30:32;3.13;;;1.10;;
61905;SDS011;47863;55.766;37.672;2023-05-16T12:33:01;3.90;;;1.00;;
61905;SDS011;47863;55.766;37.672;2023-05-16T12:35:29;2.38;;;1.05;;
61905;SDS011;47863;55.766;37.672;2023-05-16T12:37:56;4.22;;;1.00;;
61905;SDS011;47863;55.766;37.672;2023-05-16T12:40:22;5.80;;;1.30;;
61905;SDS011;47863;55.766;37.672;2023-05-16T12:42:52;2.97;;;1.30;;
61905;SDS011;47863;55.766;37.672;2023-05-16T12:45:18;1.95;;;1.02;;
61905;SDS011;47863;55.766;37.672;2023-05-16T12:47:49;3.92;;;1.42;;
61905;SDS011;47863;55.766;37.672;2023-05-16T12:50:15;1.63;;;1.00;;
61905;SDS011;47863;55.766;37.672;2023-05-16T12:52:50;2.38;;;1.00;;
61905;SDS011;47863;55.766;37.672;2023-05-16T12:55:17;6.75;;;1.40;;
61905;SDS011;47863;55.766;37.672;2023-05-16T12:57:47;8.13;;;3.97;;
61905;SDS011;47863;55.766;37.672;2023-05-16T13:00:18;10.02;;;3.20;;
61905;SDS011;47863;55.766;37.672;2023-05-16T13:02:47;6.40;;;3.28;;
61905;SDS011;47863;55.766;37.672;2023-05-16T13:05:15;5.20;;;2.10;;
61905;SDS011;47863;55.766;37.672;2023-05-16T13:07:42;7.28;;;2.92;;
61905;SDS011;47863;55.766;37.672;2023-05-16T13:10:10;6.25;;;3.30;;
61905;SDS011;47863;55.766;37.672;2023-05-16T13:12:37;5.45;;;2.75;;
61905;SDS011;47863;55.766;37.672;2023-05-16T13:15:04;7.60;;;2.38;;
61905;SDS011;47863;55.766;37.672;2023-05-16T13:17:34;6.03;;;2.25;;
61905;SDS011;47863;55.766;37.672;2023-05-16T13:20:01;2.88;;;1.40;;
61905;SDS011;47863;55.766;37.672;2023-05-16T13:22:29;3.33;;;1.50;;
61905;SDS011;47863;55.766;37.672;2023-05-16T13:24:55;2.42;;;1.40;;
61905;SDS011;47863;55.766;37.672;2023-05-16T13:27:20;3.03;;;1.15;;
61905;SDS011;47863;55.766;37.672;2023-05-16T13:29:46;3.05;;;1.40;;
61905;SDS011;47863;55.766;37.672;2023-05-16T13:32:12;3.67;;;1.80;;
61905;SDS011;47863;55.766;37.672;2023-05-16T13:34:40;3.30;;;1.50;;
61905;SDS011;47863;55.766;37.672;2023-05-16T13:37:05;5.30;;;2.50;;
61905;SDS011;47863;55.766;37.672;2023-05-16T13:39:31;10.40;;;5.65;;
61905;SDS011;47863;55.766;37.672;2023-05-16T13:41:56;10.68;;;3.78;;
61905;SDS011;47863;55.766;37.672;2023-05-16T13:44:24;8.70;;;4.32;;
61905;SDS011;47863;55.766;37.672;2023-05-16T13:46:50;7.63;;;3.60;;
61905;SDS011;47863;55.766;37.672;2023-05-16T13:49:18;6.90;;;3.00;;
61905;SDS011;47863;55.766;37.672;2023-05-16T13:51:44;6.20;;;2.70;;
61905;SDS011;47863;55.766;37.672;2023-05-16T13:54:09;12.75;;;3.88;;
61905;SDS011;47863;55.766;37.672;2023-05-16T13:56:38;6.25;;;2.40;;
61905;SDS011;47863;55.766;37.672;2023-05-16T13:59:04;4.93;;;2.72;;
61905;SDS011;47863;55.766;37.672;2023-05-16T14:01:29;7.00;;;2.50;;
61905;SDS011;47863;55.766;37.672;2023-05-16T14:03:55;6.75;;;2.45;;
61905;SDS011;47863;55.766;37.672;2023-05-16T14:06:21;9.02;;;2.20;;
61905;SDS011;47863;55.766;37.672;2023-05-16T14:08:46;3.65;;;1.77;;
61905;SDS011;47863;55.766;37.672;2023-05-16T14:11:12;2.95;;;1.58;;
61905;SDS011;47863;55.766;37.672;2023-05-16T14:13:40;6.13;;;2.35;;
61905;SDS011;47863;55.766;37.672;2023-05-16T14:16:06;20.10;;;2.88;;
61905;SDS011;47863;55.766;37.672;2023-05-16T14:18:32;4.53;;;1.30;;
61905;SDS011;47863;55.766;37.672;2023-05-16T14:21:00;6.47;;;1.38;;
61905;SDS011;47863;55.766;37.672;2023-05-16T14:23:26;9.65;;;1.40;;
61905;SDS011;47863;55.766;37.672;2023-05-16T14:25:52;4.00;;;1.42;;
61905;SDS011;47863;55.766;37.672;2023-05-16T14:28:20;1.88;;;1.27;;
61905;SDS011;47863;55.766;37.672;2023-05-16T14:30:45;1.80;;;1.15;;
61905;SDS011;47863;55.766;37.672;2023-05-16T14:33:11;4.47;;;1.40;;
61905;SDS011;47863;55.766;37.672;2023-05-16T14:35:37;3.10;;;1.30;;
61905;SDS011;47863;55.766;37.672;2023-05-16T14:38:04;2.33;;;1.15;;
61905;SDS011;47863;55.766;37.672;2023-05-16T14:40:29;7.57;;;1.30;;
61905;SDS011;47863;55.766;37.672;2023-05-16T14:43:03;2.92;;;1.20;;
61905;SDS011;47863;55.766;37.672;2023-05-16T14:45:29;8.75;;;1.63;;
61905;SDS011;47863;55.766;37.672;2023-05-16T14:47:58;2.55;;;1.10;;
61905;SDS011;47863;55.766;37.672;2023-05-16T14:50:23;4.80;;;1.10;;
61905;SDS011;47863;55.766;37.672;2023-05-16T14:52:51;2.40;;;1.17;;
61905;SDS011;47863;55.766;37.672;2023-05-16T14:55:17;1.48;;;1.00;;
61905;SDS011;47863;55.766;37.672;2023-05-16T14:57:43;3.50;;;1.38;;
61905;SDS011;47863;55.766;37.672;2023-05-16T15:00:09;1.98;;;1.10;;
61905;SDS011;47863;55.766;37.672;2023-05-16T15:02:39;1.73;;;0.85;;